sensor_id;sensor_type;location;lat;lon;timestamp;temperature;humidity
37356;DHT22;48747;50.250;18.848;2023-02-26T01:28:41;1.10;99.90
37356;DHT22;48747;50.250;18.848;2023-02-26T01:45:22;1.00;99.90
37356;DHT22;48747;50.250;18.848;2023-02-26T01:48:04;1.00;99.90
37356;DHT22;48747;50.250;18.848;2023-02-26T01:50:25;1.00;99.90
37356;DHT22;48747;50.250;18.848;2023-02-26T01:58:01;1.00;99.90
37356;DHT22;48747;50.250;18.848;2023-02-26T02:00:08;1.00;99.90
37356;DHT22;48747;50.250;18.848;2023-02-26T02:04:39;1.00;99.90
37356;DHT22;48747;50.250;18.848;2023-02-26T02:06:46;1.00;99.90
37356;DHT22;48747;50.250;18.848;2023-02-26T02:08:52;1.10;99.90
37356;DHT22;48747;50.250;18.848;2023-02-26T02:18:47;1.10;99.90
37356;DHT22;48747;50.250;18.848;2023-02-26T02:33:26;0.80;99.90
37356;DHT22;48747;50.250;18.848;2023-02-26T02:37:50;0.80;99.90
37356;DHT22;48747;50.250;18.848;2023-02-26T02:42:20;0.80;99.90
37356;DHT22;48747;50.250;18.848;2023-02-26T02:44:26;0.80;99.90
37356;DHT22;48747;50.250;18.848;2023-02-26T02:46:37;0.80;99.90
37356;DHT22;48747;50.250;18.848;2023-02-26T02:48:48;0.80;99.90
37356;DHT22;48747;50.250;18.848;2023-02-26T02:53:29;0.70;99.90
37356;DHT22;48747;50.250;18.848;2023-02-26T02:55:36;0.70;99.90
37356;DHT22;48747;50.250;18.848;2023-02-26T03:00:21;0.70;99.90
37356;DHT22;48747;50.250;18.848;2023-02-26T03:02:34;0.80;99.90
37356;DHT22;48747;50.250;18.848;2023-02-26T03:04:44;0.70;99.90
37356;DHT22;48747;50.250;18.848;2023-02-26T03:09:06;0.70;99.90
37356;DHT22;48747;50.250;18.848;2023-02-26T03:11:18;0.70;99.90
37356;DHT22;48747;50.250;18.848;2023-02-26T03:15:54;0.70;99.90
37356;DHT22;48747;50.250;18.848;2023-02-26T03:20:42;0.60;99.90
37356;DHT22;48747;50.250;18.848;2023-02-26T03:25:25;0.50;99.90
37356;DHT22;48747;50.250;18.848;2023-02-26T03:32:08;0.60;99.90
37356;DHT22;48747;50.250;18.848;2023-02-26T03:34:20;0.60;99.90
37356;DHT22;48747;50.250;18.848;2023-02-26T03:40:46;0.60;99.90
37356;DHT22;48747;50.250;18.848;2023-02-26T03:45:06;0.60;99.90
37356;DHT22;48747;50.250;18.848;2023-02-26T03:47:15;0.60;99.90
37356;DHT22;48747;50.250;18.848;2023-02-26T03:51:43;0.60;99.90
37356;DHT22;48747;50.250;18.848;2023-02-26T03:54:29;0.60;99.90
37356;DHT22;48747;50.250;18.848;2023-02-26T03:56:17;0.60;99.90
37356;DHT22;48747;50.250;18.848;2023-02-26T03:58:29;0.60;99.90
37356;DHT22;48747;50.250;18.848;2023-02-26T04:00:56;0.60;99.90
37356;DHT22;48747;50.250;18.848;2023-02-26T04:05:11;0.60;99.90
37356;DHT22;48747;50.250;18.848;2023-02-26T04:07:24;0.50;99.90
37356;DHT22;48747;50.250;18.848;2023-02-26T04:11:40;0.40;99.90
37356;DHT22;48747;50.250;18.848;2023-02-26T04:13:38;0.40;99.90
37356;DHT22;48747;50.250;18.848;2023-02-26T04:16:05;0.30;99.90
37356;DHT22;48747;50.250;18.848;2023-02-26T04:18:17;0.20;99.90
37356;DHT22;48747;50.250;18.848;2023-02-26T04:20:31;0.20;99.90
37356;DHT22;48747;50.250;18.848;2023-02-26T04:22:28;0.10;99.90
37356;DHT22;48747;50.250;18.848;2023-02-26T04:28:55;0.10;99.90
37356;DHT22;48747;50.250;18.848;2023-02-26T04:31:11;0.00;99.90
37356;DHT22;48747;50.250;18.848;2023-02-26T04:33:08;0.10;99.90
37356;DHT22;48747;50.250;18.848;2023-02-26T04:35:17;0.00;99.90
37356;DHT22;48747;50.250;18.848;2023-02-26T04:37:18;0.00;99.90
37356;DHT22;48747;50.250;18.848;2023-02-26T04:39:31;0.10;99.90
37356;DHT22;48747;50.250;18.848;2023-02-26T04:41:39;0.00;99.90
37356;DHT22;48747;50.250;18.848;2023-02-26T04:43:46;0.00;99.90
37356;DHT22;48747;50.250;18.848;2023-02-26T04:45:51;0.10;99.90
37356;DHT22;48747;50.250;18.848;2023-02-26T04:50:24;0.10;99.90
37356;DHT22;48747;50.250;18.848;2023-02-26T04:52:27;0.10;99.90
37356;DHT22;48747;50.250;18.848;2023-02-26T04:56:48;0.10;99.90
37356;DHT22;48747;50.250;18.848;2023-02-26T04:59:01;0.10;99.90
37356;DHT22;48747;50.250;18.848;2023-02-26T05:01:06;0.10;99.90
37356;DHT22;48747;50.250;18.848;2023-02-26T05:03:18;0.20;99.90
37356;DHT22;48747;50.250;18.848;2023-02-26T05:05:21;0.20;99.90
37356;DHT22;48747;50.250;18.848;2023-02-26T05:07:36;0.10;99.90
37356;DHT22;48747;50.250;18.848;2023-02-26T05:09:40;0.10;99.90
37356;DHT22;48747;50.250;18.848;2023-02-26T05:11:52;0.20;99.90
37356;DHT22;48747;50.250;18.848;2023-02-26T05:14:15;0.20;99.90
37356;DHT22;48747;50.250;18.848;2023-02-26T05:16:10;0.20;99.90
37356;DHT22;48747;50.250;18.848;2023-02-26T05:18:11;0.10;99.90
37356;DHT22;48747;50.250;18.848;2023-02-26T05:20:24;0.20;99.90
37356;DHT22;48747;50.250;18.848;2023-02-26T05:24:41;0.10;99.90
37356;DHT22;48747;50.250;18.848;2023-02-26T05:26:46;0.20;99.90
37356;DHT22;48747;50.250;18.848;2023-02-26T05:31:07;0.20;99.90
37356;DHT22;48747;50.250;18.848;2023-02-26T05:35:38;0.20;99.90
37356;DHT22;48747;50.250;18.848;2023-02-26T05:37:29;0.20;99.90
37356;DHT22;48747;50.250;18.848;2023-02-26T05:39:41;0.10;99.90
37356;DHT22;48747;50.250;18.848;2023-02-26T05:41:49;0.20;99.90
37356;DHT22;48747;50.250;18.848;2023-02-26T05:44:00;0.20;99.90
37356;DHT22;48747;50.250;18.848;2023-02-26T05:45:58;0.20;99.90
37356;DHT22;48747;50.250;18.848;2023-02-26T05:48:13;0.20;99.90
37356;DHT22;48747;50.250;18.848;2023-02-26T05:50:14;0.30;99.90
37356;DHT22;48747;50.250;18.848;2023-02-26T05:52:19;0.30;99.90
37356;DHT22;48747;50.250;18.848;2023-02-26T05:54:31;0.30;99.90
37356;DHT22;48747;50.250;18.848;2023-02-26T05:58:44;0.20;99.90
37356;DHT22;48747;50.250;18.848;2023-02-26T06:00:56;0.30;99.90
37356;DHT22;48747;50.250;18.848;2023-02-26T06:02:56;0.30;99.90
37356;DHT22;48747;50.250;18.848;2023-02-26T06:07:56;0.30;99.90
37356;DHT22;48747;50.250;18.848;2023-02-26T06:09:19;0.30;99.90
37356;DHT22;48747;50.250;18.848;2023-02-26T06:11:36;0.40;99.90
37356;DHT22;48747;50.250;18.848;2023-02-26T06:13:41;0.40;99.90
37356;DHT22;48747;50.250;18.848;2023-02-26T06:15:58;0.40;99.90
37356;DHT22;48747;50.250;18.848;2023-02-26T06:17:56;0.40;99.90
37356;DHT22;48747;50.250;18.848;2023-02-26T06:20:24;0.40;99.90
37356;DHT22;48747;50.250;18.848;2023-02-26T06:22:18;0.40;99.90
37356;DHT22;48747;50.250;18.848;2023-02-26T06:24:24;0.40;99.90
37356;DHT22;48747;50.250;18.848;2023-02-26T06:26:55;0.40;99.90
37356;DHT22;48747;50.250;18.848;2023-02-26T06:30:46;0.40;99.90
37356;DHT22;48747;50.250;18.848;2023-02-26T06:35:02;0.40;99.90
37356;DHT22;48747;50.250;18.848;2023-02-26T06:37:10;0.40;99.90
37356;DHT22;48747;50.250;18.848;2023-02-26T06:39:21;0.40;99.90
37356;DHT22;48747;50.250;18.848;2023-02-26T06:45:47;0.50;99.90
37356;DHT22;48747;50.250;18.848;2023-02-26T06:48:00;0.50;99.90
37356;DHT22;48747;50.250;18.848;2023-02-26T06:50:03;0.50;99.90
37356;DHT22;48747;50.250;18.848;2023-02-26T06:52:15;0.50;99.90
37356;DHT22;48747;50.250;18.848;2023-02-26T06:54:18;0.50;99.90
37356;DHT22;48747;50.250;18.848;2023-02-26T06:58:36;0.50;99.90
37356;DHT22;48747;50.250;18.848;2023-02-26T07:03:15;0.50;99.90
37356;DHT22;48747;50.250;18.848;2023-02-26T07:07:20;0.60;99.90
37356;DHT22;48747;50.250;18.848;2023-02-26T07:18:42;0.80;99.90
37356;DHT22;48747;50.250;18.848;2023-02-26T07:20:41;0.90;99.90
37356;DHT22;48747;50.250;18.848;2023-02-26T07:25:24;1.00;99.90
37356;DHT22;48747;50.250;18.848;2023-02-26T07:27:20;1.00;99.90
37356;DHT22;48747;50.250;18.848;2023-02-26T07:29:29;1.00;99.90
37356;DHT22;48747;50.250;18.848;2023-02-26T07:31:36;0.90;99.90
37356;DHT22;48747;50.250;18.848;2023-02-26T07:33:45;0.90;99.90
37356;DHT22;48747;50.250;18.848;2023-02-26T07:38:08;0.80;99.90
37356;DHT22;48747;50.250;18.848;2023-02-26T07:40:10;0.80;99.90
37356;DHT22;48747;50.250;18.848;2023-02-26T07:44:23;0.80;99.90
37356;DHT22;48747;50.250;18.848;2023-02-26T07:46:49;0.90;99.90
37356;DHT22;48747;50.250;18.848;2023-02-26T07:48:55;1.00;99.90
37356;DHT22;48747;50.250;18.848;2023-02-26T07:51:03;1.20;99.90
37356;DHT22;48747;50.250;18.848;2023-02-26T07:53:13;1.30;99.90
37356;DHT22;48747;50.250;18.848;2023-02-26T07:55:21;1.40;99.90
37356;DHT22;48747;50.250;18.848;2023-02-26T07:57:33;1.50;99.90
37356;DHT22;48747;50.250;18.848;2023-02-26T07:59:43;1.50;99.90
37356;DHT22;48747;50.250;18.848;2023-02-26T08:02:11;1.50;99.90
37356;DHT22;48747;50.250;18.848;2023-02-26T08:06:15;1.40;99.90
37356;DHT22;48747;50.250;18.848;2023-02-26T08:10:44;1.30;99.90
37356;DHT22;48747;50.250;18.848;2023-02-26T08:15:23;1.20;99.90
37356;DHT22;48747;50.250;18.848;2023-02-26T08:19:36;1.00;99.90
37356;DHT22;48747;50.250;18.848;2023-02-26T08:21:56;0.80;99.90
37356;DHT22;48747;50.250;18.848;2023-02-26T08:23:42;0.60;99.90
37356;DHT22;48747;50.250;18.848;2023-02-26T08:25:52;0.50;99.90
37356;DHT22;48747;50.250;18.848;2023-02-26T08:30:11;0.40;99.90
37356;DHT22;48747;50.250;18.848;2023-02-26T08:32:25;0.40;99.90
37356;DHT22;48747;50.250;18.848;2023-02-26T08:37:10;0.50;99.90
37356;DHT22;48747;50.250;18.848;2023-02-26T08:39:11;0.70;99.90
37356;DHT22;48747;50.250;18.848;2023-02-26T08:45:34;1.00;99.90
37356;DHT22;48747;50.250;18.848;2023-02-26T08:47:37;1.00;99.90
37356;DHT22;48747;50.250;18.848;2023-02-26T08:49:57;1.10;99.90
37356;DHT22;48747;50.250;18.848;2023-02-26T08:54:22;1.30;99.90
37356;DHT22;48747;50.250;18.848;2023-02-26T08:56:35;1.30;99.90
37356;DHT22;48747;50.250;18.848;2023-02-26T08:58:50;1.40;99.90
37356;DHT22;48747;50.250;18.848;2023-02-26T09:03:09;1.50;99.90
37356;DHT22;48747;50.250;18.848;2023-02-26T09:05:14;1.40;99.90
37356;DHT22;48747;50.250;18.848;2023-02-26T09:18:47;1.40;99.90
37356;DHT22;48747;50.250;18.848;2023-02-26T09:20:50;1.60;99.90
37356;DHT22;48747;50.250;18.848;2023-02-26T09:23:33;1.90;99.90
37356;DHT22;48747;50.250;18.848;2023-02-26T09:29:07;2.40;99.20
37356;DHT22;48747;50.250;18.848;2023-02-26T09:36:43;2.20;98.80
37356;DHT22;48747;50.250;18.848;2023-02-26T09:38:29;2.10;99.50
37356;DHT22;48747;50.250;18.848;2023-02-26T09:45:40;2.30;97.00
37356;DHT22;48747;50.250;18.848;2023-02-26T09:47:46;2.70;98.70
37356;DHT22;48747;50.250;18.848;2023-02-26T09:55:18;3.30;99.90
37356;DHT22;48747;50.250;18.848;2023-02-26T09:57:33;2.90;99.90
37356;DHT22;48747;50.250;18.848;2023-02-26T10:07:02;1.90;99.90
37356;DHT22;48747;50.250;18.848;2023-02-26T10:26:36;1.90;99.90
37356;DHT22;48747;50.250;18.848;2023-02-26T10:28:31;2.20;99.90
37356;DHT22;48747;50.250;18.848;2023-02-26T10:30:43;2.40;99.90
37356;DHT22;48747;50.250;18.848;2023-02-26T10:35:19;2.50;99.90
37356;DHT22;48747;50.250;18.848;2023-02-26T10:40:01;2.20;99.90
37356;DHT22;48747;50.250;18.848;2023-02-26T10:44:39;2.00;99.90
37356;DHT22;48747;50.250;18.848;2023-02-26T10:57:55;1.40;99.90
37356;DHT22;48747;50.250;18.848;2023-02-26T11:02:54;1.10;99.90
37356;DHT22;48747;50.250;18.848;2023-02-26T11:19:41;1.40;99.90
37356;DHT22;48747;50.250;18.848;2023-02-26T11:21:36;1.40;99.90
37356;DHT22;48747;50.250;18.848;2023-02-26T11:45:45;0.90;99.90
37356;DHT22;48747;50.250;18.848;2023-02-26T12:54:57;1.00;99.90
37356;DHT22;48747;50.250;18.848;2023-02-26T15:05:05;0.70;99.90
37356;DHT22;48747;50.250;18.848;2023-02-26T15:25:22;0.80;99.90
37356;DHT22;48747;50.250;18.848;2023-02-26T15:29:24;0.70;99.90
37356;DHT22;48747;50.250;18.848;2023-02-26T15:31:52;0.70;99.90
37356;DHT22;48747;50.250;18.848;2023-02-26T15:34:08;0.70;99.90
37356;DHT22;48747;50.250;18.848;2023-02-26T15:38:29;0.70;99.90
37356;DHT22;48747;50.250;18.848;2023-02-26T15:47:44;0.70;99.90
37356;DHT22;48747;50.250;18.848;2023-02-26T15:59:15;0.70;99.90
37356;DHT22;48747;50.250;18.848;2023-02-26T16:12:38;0.70;99.90
37356;DHT22;48747;50.250;18.848;2023-02-26T16:21:38;0.70;99.90
37356;DHT22;48747;50.250;18.848;2023-02-26T16:24:30;0.60;99.90
37356;DHT22;48747;50.250;18.848;2023-02-26T16:26:28;0.70;99.90
37356;DHT22;48747;50.250;18.848;2023-02-26T16:28:30;0.70;99.90
37356;DHT22;48747;50.250;18.848;2023-02-26T16:30:41;0.70;99.90
37356;DHT22;48747;50.250;18.848;2023-02-26T16:39:43;0.60;99.90
37356;DHT22;48747;50.250;18.848;2023-02-26T16:46:42;0.60;99.90
37356;DHT22;48747;50.250;18.848;2023-02-26T16:48:59;0.60;99.90
37356;DHT22;48747;50.250;18.848;2023-02-26T16:51:19;0.60;99.90
37356;DHT22;48747;50.250;18.848;2023-02-26T16:53:39;0.70;99.90
37356;DHT22;48747;50.250;18.848;2023-02-26T16:57:44;0.70;99.90
37356;DHT22;48747;50.250;18.848;2023-02-26T16:59:40;0.70;99.90
37356;DHT22;48747;50.250;18.848;2023-02-26T17:04:27;0.70;99.90
37356;DHT22;48747;50.250;18.848;2023-02-26T17:08:36;0.70;99.90
37356;DHT22;48747;50.250;18.848;2023-02-26T17:13:23;0.70;99.90
37356;DHT22;48747;50.250;18.848;2023-02-26T17:15:30;0.70;99.90
37356;DHT22;48747;50.250;18.848;2023-02-26T17:17:33;0.60;99.90
37356;DHT22;48747;50.250;18.848;2023-02-26T17:19:37;0.70;99.90
37356;DHT22;48747;50.250;18.848;2023-02-26T17:21:48;0.70;99.90
37356;DHT22;48747;50.250;18.848;2023-02-26T17:23:51;0.70;99.90
37356;DHT22;48747;50.250;18.848;2023-02-26T17:26:01;0.70;99.90
37356;DHT22;48747;50.250;18.848;2023-02-26T17:28:03;0.70;99.90
37356;DHT22;48747;50.250;18.848;2023-02-26T17:30:10;0.70;99.90
37356;DHT22;48747;50.250;18.848;2023-02-26T17:32:20;0.70;99.90
37356;DHT22;48747;50.250;18.848;2023-02-26T17:34:35;0.70;99.90
37356;DHT22;48747;50.250;18.848;2023-02-26T17:36:35;0.60;99.90
37356;DHT22;48747;50.250;18.848;2023-02-26T17:38:48;0.70;99.90
37356;DHT22;48747;50.250;18.848;2023-02-26T17:40:48;0.60;99.90
37356;DHT22;48747;50.250;18.848;2023-02-26T17:42:59;0.60;99.90
37356;DHT22;48747;50.250;18.848;2023-02-26T17:44:59;0.60;99.90
37356;DHT22;48747;50.250;18.848;2023-02-26T17:47:04;0.60;99.90
37356;DHT22;48747;50.250;18.848;2023-02-26T17:51:24;0.60;99.90
37356;DHT22;48747;50.250;18.848;2023-02-26T17:53:29;0.60;99.90
37356;DHT22;48747;50.250;18.848;2023-02-26T17:55:36;0.50;99.90
37356;DHT22;48747;50.250;18.848;2023-02-26T17:57:39;0.50;99.90
37356;DHT22;48747;50.250;18.848;2023-02-26T17:59:48;0.50;99.90
37356;DHT22;48747;50.250;18.848;2023-02-26T18:01:55;0.50;99.90
37356;DHT22;48747;50.250;18.848;2023-02-26T18:03:56;0.50;99.90
37356;DHT22;48747;50.250;18.848;2023-02-26T18:06:15;0.50;99.90
37356;DHT22;48747;50.250;18.848;2023-02-26T18:10:20;0.50;99.90
37356;DHT22;48747;50.250;18.848;2023-02-26T18:12:25;0.40;99.90
37356;DHT22;48747;50.250;18.848;2023-02-26T18:14:28;0.40;99.90
37356;DHT22;48747;50.250;18.848;2023-02-26T18:16:37;0.40;99.90
37356;DHT22;48747;50.250;18.848;2023-02-26T18:18:41;0.40;99.90
37356;DHT22;48747;50.250;18.848;2023-02-26T18:20:44;0.40;99.90
37356;DHT22;48747;50.250;18.848;2023-02-26T18:22:49;0.30;99.90
37356;DHT22;48747;50.250;18.848;2023-02-26T18:24:53;0.30;99.90
37356;DHT22;48747;50.250;18.848;2023-02-26T18:26:58;0.30;99.90
37356;DHT22;48747;50.250;18.848;2023-02-26T18:29:01;0.30;99.90
37356;DHT22;48747;50.250;18.848;2023-02-26T18:31:14;0.40;99.90
37356;DHT22;48747;50.250;18.848;2023-02-26T18:33:15;0.40;99.90
37356;DHT22;48747;50.250;18.848;2023-02-26T18:35:23;0.40;99.90
37356;DHT22;48747;50.250;18.848;2023-02-26T18:37:30;0.30;99.90
37356;DHT22;48747;50.250;18.848;2023-02-26T18:39:35;0.30;99.90
37356;DHT22;48747;50.250;18.848;2023-02-26T18:41:41;0.40;99.90
37356;DHT22;48747;50.250;18.848;2023-02-26T18:43:45;0.40;99.90
37356;DHT22;48747;50.250;18.848;2023-02-26T18:45:52;0.40;99.90
37356;DHT22;48747;50.250;18.848;2023-02-26T18:48:01;0.40;99.90
37356;DHT22;48747;50.250;18.848;2023-02-26T18:52:12;0.40;99.90
37356;DHT22;48747;50.250;18.848;2023-02-26T18:54:19;0.40;99.90
37356;DHT22;48747;50.250;18.848;2023-02-26T18:56:29;0.40;99.90
37356;DHT22;48747;50.250;18.848;2023-02-26T18:58:30;0.40;99.90
37356;DHT22;48747;50.250;18.848;2023-02-26T19:07:22;0.30;99.90
37356;DHT22;48747;50.250;18.848;2023-02-26T19:09:27;0.30;99.90
37356;DHT22;48747;50.250;18.848;2023-02-26T19:11:36;0.40;99.90
37356;DHT22;48747;50.250;18.848;2023-02-26T19:13:45;0.40;99.90
37356;DHT22;48747;50.250;18.848;2023-02-26T19:15:58;0.40;99.90
37356;DHT22;48747;50.250;18.848;2023-02-26T19:18:00;0.40;99.90
37356;DHT22;48747;50.250;18.848;2023-02-26T19:20:19;0.50;99.90
37356;DHT22;48747;50.250;18.848;2023-02-26T19:22:13;0.50;99.90
37356;DHT22;48747;50.250;18.848;2023-02-26T19:26:36;0.50;99.90
37356;DHT22;48747;50.250;18.848;2023-02-26T19:28:36;0.50;99.90
37356;DHT22;48747;50.250;18.848;2023-02-26T19:30:46;0.50;99.90
37356;DHT22;48747;50.250;18.848;2023-02-26T19:32:49;0.50;99.90
37356;DHT22;48747;50.250;18.848;2023-02-26T19:34:55;0.60;99.90
37356;DHT22;48747;50.250;18.848;2023-02-26T19:37:03;0.50;99.90
37356;DHT22;48747;50.250;18.848;2023-02-26T19:39:10;0.50;99.90
37356;DHT22;48747;50.250;18.848;2023-02-26T19:41:22;0.50;99.90
37356;DHT22;48747;50.250;18.848;2023-02-26T19:43:41;0.50;99.90
37356;DHT22;48747;50.250;18.848;2023-02-26T19:45:44;0.40;99.90
37356;DHT22;48747;50.250;18.848;2023-02-26T19:47:41;0.50;99.90
37356;DHT22;48747;50.250;18.848;2023-02-26T19:50:05;0.40;99.90
37356;DHT22;48747;50.250;18.848;2023-02-26T19:52:15;0.40;99.90
37356;DHT22;48747;50.250;18.848;2023-02-26T19:54:25;0.40;99.90
37356;DHT22;48747;50.250;18.848;2023-02-26T19:56:31;0.40;99.90
37356;DHT22;48747;50.250;18.848;2023-02-26T19:58:37;0.50;99.90
37356;DHT22;48747;50.250;18.848;2023-02-26T20:00:48;0.50;99.90
37356;DHT22;48747;50.250;18.848;2023-02-26T20:02:49;0.60;99.90
37356;DHT22;48747;50.250;18.848;2023-02-26T20:04:54;0.50;99.90
37356;DHT22;48747;50.250;18.848;2023-02-26T20:07:08;0.50;99.90
37356;DHT22;48747;50.250;18.848;2023-02-26T20:09:11;0.40;99.90
37356;DHT22;48747;50.250;18.848;2023-02-26T20:11:15;0.20;99.90
37356;DHT22;48747;50.250;18.848;2023-02-26T20:13:32;0.10;99.90
37356;DHT22;48747;50.250;18.848;2023-02-26T20:15:34;0.00;99.90
37356;DHT22;48747;50.250;18.848;2023-02-26T20:17:34;0.00;99.90
37356;DHT22;48747;50.250;18.848;2023-02-26T20:19:39;0.00;99.90
37356;DHT22;48747;50.250;18.848;2023-02-26T20:22:01;-0.10;99.90
37356;DHT22;48747;50.250;18.848;2023-02-26T20:23:55;-0.10;99.90
37356;DHT22;48747;50.250;18.848;2023-02-26T20:25:57;-0.10;99.90
37356;DHT22;48747;50.250;18.848;2023-02-26T20:28:10;-0.10;99.90
37356;DHT22;48747;50.250;18.848;2023-02-26T20:32:26;-0.20;99.90
37356;DHT22;48747;50.250;18.848;2023-02-26T20:34:37;-0.20;99.90
37356;DHT22;48747;50.250;18.848;2023-02-26T20:36:48;-0.20;99.90
37356;DHT22;48747;50.250;18.848;2023-02-26T20:38:58;-0.10;99.90
37356;DHT22;48747;50.250;18.848;2023-02-26T20:41:02;-0.10;99.90
37356;DHT22;48747;50.250;18.848;2023-02-26T20:43:04;-0.10;99.90
37356;DHT22;48747;50.250;18.848;2023-02-26T20:45:09;-0.10;99.90
37356;DHT22;48747;50.250;18.848;2023-02-26T20:47:22;-0.10;99.90
37356;DHT22;48747;50.250;18.848;2023-02-26T20:49:36;-0.10;99.90
37356;DHT22;48747;50.250;18.848;2023-02-26T20:51:33;-0.10;99.90
37356;DHT22;48747;50.250;18.848;2023-02-26T20:55:40;-0.10;99.90
37356;DHT22;48747;50.250;18.848;2023-02-26T20:58:02;0.00;99.90
37356;DHT22;48747;50.250;18.848;2023-02-26T21:02:02;-0.10;99.90
37356;DHT22;48747;50.250;18.848;2023-02-26T21:04:17;0.00;99.90
37356;DHT22;48747;50.250;18.848;2023-02-26T21:06:19;-0.10;99.90
37356;DHT22;48747;50.250;18.848;2023-02-26T21:08:47;-0.10;99.90
37356;DHT22;48747;50.250;18.848;2023-02-26T21:10:36;0.00;99.90
37356;DHT22;48747;50.250;18.848;2023-02-26T21:12:43;0.00;99.90
37356;DHT22;48747;50.250;18.848;2023-02-26T21:14:47;0.00;99.90
37356;DHT22;48747;50.250;18.848;2023-02-26T21:16:53;0.10;99.90
37356;DHT22;48747;50.250;18.848;2023-02-26T21:18:58;0.00;99.90
37356;DHT22;48747;50.250;18.848;2023-02-26T21:21:06;0.00;99.90
37356;DHT22;48747;50.250;18.848;2023-02-26T21:23:17;0.00;99.90
37356;DHT22;48747;50.250;18.848;2023-02-26T21:25:19;0.00;99.90
37356;DHT22;48747;50.250;18.848;2023-02-26T21:27:30;0.10;99.90
37356;DHT22;48747;50.250;18.848;2023-02-26T21:29:33;0.00;99.90
37356;DHT22;48747;50.250;18.848;2023-02-26T21:31:44;0.00;99.90
37356;DHT22;48747;50.250;18.848;2023-02-26T21:34:01;0.10;99.90
37356;DHT22;48747;50.250;18.848;2023-02-26T21:36:06;0.10;99.90
37356;DHT22;48747;50.250;18.848;2023-02-26T21:38:11;0.20;99.90
37356;DHT22;48747;50.250;18.848;2023-02-26T21:40:17;0.20;99.90
37356;DHT22;48747;50.250;18.848;2023-02-26T21:42:22;0.30;99.90
37356;DHT22;48747;50.250;18.848;2023-02-26T21:46:34;0.20;99.90
37356;DHT22;48747;50.250;18.848;2023-02-26T21:48:39;0.30;99.90
37356;DHT22;48747;50.250;18.848;2023-02-26T21:51:00;0.30;99.90
37356;DHT22;48747;50.250;18.848;2023-02-26T21:53:02;0.30;99.90
37356;DHT22;48747;50.250;18.848;2023-02-26T21:55:00;0.30;99.90
37356;DHT22;48747;50.250;18.848;2023-02-26T21:57:06;0.30;99.90
37356;DHT22;48747;50.250;18.848;2023-02-26T21:59:17;0.20;99.90
37356;DHT22;48747;50.250;18.848;2023-02-26T22:01:19;0.20;99.90
37356;DHT22;48747;50.250;18.848;2023-02-26T22:03:26;0.30;99.90
37356;DHT22;48747;50.250;18.848;2023-02-26T22:07:39;0.40;99.90
37356;DHT22;48747;50.250;18.848;2023-02-26T22:11:55;0.40;99.90
37356;DHT22;48747;50.250;18.848;2023-02-26T22:13:59;0.40;99.90
37356;DHT22;48747;50.250;18.848;2023-02-26T22:16:08;0.40;99.90
37356;DHT22;48747;50.250;18.848;2023-02-26T22:18:12;0.50;99.90
37356;DHT22;48747;50.250;18.848;2023-02-26T22:20:27;0.40;99.90
37356;DHT22;48747;50.250;18.848;2023-02-26T22:22:31;0.40;99.90
37356;DHT22;48747;50.250;18.848;2023-02-26T22:24:40;0.40;99.90
37356;DHT22;48747;50.250;18.848;2023-02-26T22:26:43;0.40;99.90
37356;DHT22;48747;50.250;18.848;2023-02-26T22:28:51;0.40;99.90
37356;DHT22;48747;50.250;18.848;2023-02-26T22:31:01;0.40;99.90
37356;DHT22;48747;50.250;18.848;2023-02-26T22:33:07;0.40;99.90
37356;DHT22;48747;50.250;18.848;2023-02-26T22:35:13;0.40;99.90
37356;DHT22;48747;50.250;18.848;2023-02-26T22:37:21;0.40;99.90
37356;DHT22;48747;50.250;18.848;2023-02-26T22:39:29;0.40;99.90
37356;DHT22;48747;50.250;18.848;2023-02-26T22:41:33;0.40;99.90
37356;DHT22;48747;50.250;18.848;2023-02-26T22:43:39;0.40;99.90
37356;DHT22;48747;50.250;18.848;2023-02-26T22:45:42;0.40;99.90
37356;DHT22;48747;50.250;18.848;2023-02-26T22:47:46;0.40;99.90
37356;DHT22;48747;50.250;18.848;2023-02-26T22:49:49;0.40;99.90
37356;DHT22;48747;50.250;18.848;2023-02-26T22:51:52;0.30;99.90
37356;DHT22;48747;50.250;18.848;2023-02-26T22:53:55;0.30;99.90
37356;DHT22;48747;50.250;18.848;2023-02-26T22:55:58;0.30;99.90
37356;DHT22;48747;50.250;18.848;2023-02-26T22:58:02;0.30;99.90
37356;DHT22;48747;50.250;18.848;2023-02-26T23:00:09;0.30;99.90
37356;DHT22;48747;50.250;18.848;2023-02-26T23:02:13;0.30;99.90
37356;DHT22;48747;50.250;18.848;2023-02-26T23:04:17;0.30;99.90
37356;DHT22;48747;50.250;18.848;2023-02-26T23:06:22;0.30;99.90
37356;DHT22;48747;50.250;18.848;2023-02-26T23:08:29;0.30;99.90
37356;DHT22;48747;50.250;18.848;2023-02-26T23:10:41;0.20;99.90
37356;DHT22;48747;50.250;18.848;2023-02-26T23:12:44;0.20;99.90
37356;DHT22;48747;50.250;18.848;2023-02-26T23:14:49;0.20;99.90
37356;DHT22;48747;50.250;18.848;2023-02-26T23:16:53;0.10;99.90
37356;DHT22;48747;50.250;18.848;2023-02-26T23:19:20;0.10;99.90
37356;DHT22;48747;50.250;18.848;2023-02-26T23:21:19;0.10;99.90
37356;DHT22;48747;50.250;18.848;2023-02-26T23:23:24;0.10;99.90
37356;DHT22;48747;50.250;18.848;2023-02-26T23:25:23;0.10;99.90
37356;DHT22;48747;50.250;18.848;2023-02-26T23:27:35;0.10;99.90
37356;DHT22;48747;50.250;18.848;2023-02-26T23:29:48;0.10;99.90
37356;DHT22;48747;50.250;18.848;2023-02-26T23:32:10;0.10;99.90
37356;DHT22;48747;50.250;18.848;2023-02-26T23:34:20;0.00;99.90
37356;DHT22;48747;50.250;18.848;2023-02-26T23:38:25;-0.10;99.90
37356;DHT22;48747;50.250;18.848;2023-02-26T23:42:39;-0.10;99.90
37356;DHT22;48747;50.250;18.848;2023-02-26T23:44:54;-0.10;99.90
37356;DHT22;48747;50.250;18.848;2023-02-26T23:46:58;-0.10;99.90
37356;DHT22;48747;50.250;18.848;2023-02-26T23:49:05;-0.20;99.90
37356;DHT22;48747;50.250;18.848;2023-02-26T23:51:13;-0.20;99.90
37356;DHT22;48747;50.250;18.848;2023-02-26T23:53:18;-0.30;99.90
37356;DHT22;48747;50.250;18.848;2023-02-26T23:55:23;-0.30;99.90
37356;DHT22;48747;50.250;18.848;2023-02-26T23:57:44;-0.30;99.90
37356;DHT22;48747;50.250;18.848;2023-02-26T23:59:38;-0.40;99.90
